Terminal Aerodrome Forecast
Issued by NWS

Home | Current Version | Previous Version | Text Only | Print | Product List | Glossary On
Versions: 1 2 3 4 5 6 7 8 9 10 11 12 13 14 15 16 17 18 19 20 21 22 23 24 25 26 27 28 29 30 31 32 33 34 35 36 37 38 39 40 41 42 43
000
FTAK31 PANC 062331
TAFATK
TAF
PATK 062331Z 0700/0724 19006KT P6SM VCSH SCT015 OVC025
      TEMPO 0700/0704 BKN015
     FM070400 17008KT 4SM -SNRA BR OVC015
     FM070600 16006KT 1/2SM SN FZFG OVC005
     FM071800 18009KT 3SM -SN BR SCT005 OVC010
     FM072100 19010G18KT 5SM -SHSN SCT010 BKN020=

USA.gov is the U.S. government's official web portal to all federal, state and local government web resources and services.